createdAt,value
2022-09-17T00:01:28.654Z,8.05
2022-09-17T00:04:00.250Z,14.30
2022-09-17T00:06:27.760Z,12.70
2022-09-17T00:08:55.182Z,11.27
2022-09-17T00:11:25.273Z,10.35
2022-09-17T00:13:53.130Z,9.30
2022-09-17T00:16:31.246Z,9.57
2022-09-17T00:18:59.308Z,10.20
2022-09-17T00:21:26.876Z,14.75
2022-09-17T00:23:58.850Z,9.50
2022-09-17T00:26:26.665Z,14.05
2022-09-17T00:28:54.206Z,13.50
2022-09-17T00:31:21.587Z,10.25
2022-09-17T00:33:49.335Z,13.98
2022-09-17T00:36:16.738Z,11.48
2022-09-17T00:38:44.214Z,13.73
2022-09-17T00:41:11.803Z,12.57
2022-09-17T00:43:46.204Z,14.13
2022-09-17T00:46:29.075Z,17.27
2022-09-17T00:48:57.434Z,10.98
2022-09-17T00:51:28.843Z,12.88
2022-09-17T00:53:56.394Z,15.07
2022-09-17T00:56:29.738Z,13.23
2022-09-17T00:58:57.449Z,14.30
2022-09-17T01:01:24.841Z,11.48
2022-09-17T01:03:52.272Z,14.57
2022-09-17T01:06:32.617Z,11.25
2022-09-17T01:09:25.279Z,12.60
2022-09-17T01:12:18.278Z,12.27
2022-09-17T01:15:10.304Z,13.50
2022-09-17T01:17:43.886Z,12.27
2022-09-17T01:20:33.973Z,11.18
2022-09-17T01:23:16.958Z,12.27
2022-09-17T01:26:21.110Z,12.82
2022-09-17T01:29:00.936Z,13.90
2022-09-17T01:31:37.591Z,14.87
2022-09-17T01:34:31.949Z,13.30
2022-09-17T01:37:19.176Z,13.18
2022-09-17T01:39:49.073Z,16.27
2022-09-17T01:42:26.064Z,14.20
2022-09-17T01:45:04.853Z,19.20
2022-09-17T01:47:44.785Z,13.25
2022-09-17T01:50:14.267Z,14.80
2022-09-17T01:52:41.857Z,14.95
2022-09-17T01:55:10.862Z,14.45
2022-09-17T01:57:52.963Z,14.52
2022-09-17T02:00:20.571Z,11.38
2022-09-17T02:03:20.581Z,12.07
2022-09-17T02:06:12.126Z,9.63
2022-09-17T02:08:46.765Z,10.73
2022-09-17T02:11:15.479Z,9.02
2022-09-17T02:14:05.277Z,18.00
2022-09-17T02:16:34.717Z,10.55
2022-09-17T02:19:16.695Z,11.18
2022-09-17T02:21:47.213Z,10.23
2022-09-17T02:24:20.576Z,9.88
2022-09-17T02:27:15.047Z,8.15
2022-09-17T02:29:42.937Z,7.90
2022-09-17T02:32:11.200Z,9.88
2022-09-17T02:34:38.769Z,7.97
2022-09-17T02:37:06.239Z,8.63
2022-09-17T02:39:33.844Z,9.65
2022-09-17T02:42:20.719Z,8.65
2022-09-17T02:45:16.397Z,7.60
2022-09-17T02:47:52.977Z,7.35
2022-09-17T02:50:41.599Z,9.20
2022-09-17T02:53:17.963Z,10.02
2022-09-17T02:56:04.154Z,10.57
2022-09-17T02:58:34.226Z,7.82
2022-09-17T03:01:06.076Z,10.60
2022-09-17T03:03:35.522Z,6.20
2022-09-17T03:06:03.137Z,9.13
2022-09-17T03:08:34.181Z,8.27
2022-09-17T03:11:01.496Z,6.93
2022-09-17T03:13:29.089Z,9.57
2022-09-17T03:15:56.568Z,8.68
2022-09-17T03:18:24.000Z,8.93
2022-09-17T03:20:51.623Z,7.43
2022-09-17T03:23:19.103Z,7.53
2022-09-17T03:25:46.866Z,7.65
2022-09-17T03:28:14.452Z,8.23
2022-09-17T03:30:43.549Z,8.38
2022-09-17T03:33:10.907Z,7.57
2022-09-17T03:35:38.871Z,7.95
2022-09-17T03:38:06.206Z,9.43
2022-09-17T03:40:33.631Z,8.10
2022-09-17T03:43:01.229Z,7.50
2022-09-17T03:45:28.580Z,7.07
2022-09-17T03:47:56.901Z,6.53
2022-09-17T03:50:24.524Z,10.82
2022-09-17T03:52:51.945Z,6.62
2022-09-17T03:55:19.335Z,9.25
2022-09-17T03:57:46.934Z,6.15
2022-09-17T04:00:17.395Z,9.68
2022-09-17T04:02:45.304Z,5.60
2022-09-17T04:05:12.712Z,6.50
2022-09-17T04:07:41.058Z,6.90
2022-09-17T04:10:08.803Z,11.52
2022-09-17T04:12:36.350Z,10.27
2022-09-17T04:15:04.140Z,6.70
2022-09-17T04:17:31.884Z,9.60
2022-09-17T04:19:59.365Z,6.40
2022-09-17T04:22:26.694Z,5.90
2022-09-17T04:24:54.402Z,9.27
2022-09-17T04:27:21.751Z,6.25
2022-09-17T04:29:49.069Z,6.95
2022-09-17T04:32:16.698Z,7.25
2022-09-17T04:34:44.032Z,12.88
2022-09-17T04:37:11.404Z,6.28
2022-09-17T04:39:39.513Z,7.22
2022-09-17T04:42:06.924Z,8.77
2022-09-17T04:44:34.259Z,5.57
2022-09-17T04:47:01.870Z,5.40
2022-09-17T04:49:30.987Z,5.62
2022-09-17T04:51:58.454Z,7.03
2022-09-17T04:54:26.047Z,6.72
2022-09-17T04:56:53.424Z,5.78
2022-09-17T04:59:20.778Z,7.68
2022-09-17T05:01:49.476Z,6.72
2022-09-17T05:04:16.907Z,7.68
2022-09-17T05:06:44.239Z,6.70
2022-09-17T05:09:11.852Z,6.70
2022-09-17T05:11:39.184Z,9.80
2022-09-17T05:14:06.527Z,6.25
2022-09-17T05:16:34.162Z,8.57
2022-09-17T05:19:01.772Z,13.10
2022-09-17T05:21:29.179Z,6.55
2022-09-17T05:23:56.795Z,8.02
2022-09-17T05:26:24.791Z,6.80
2022-09-17T05:28:52.152Z,6.55
2022-09-17T05:31:19.847Z,5.15
2022-09-17T05:33:47.221Z,5.22
2022-09-17T05:36:14.531Z,10.18
2022-09-17T05:38:42.169Z,7.03
2022-09-17T05:41:09.509Z,6.53
2022-09-17T05:43:36.866Z,6.10
2022-09-17T05:46:04.847Z,5.80
2022-09-17T05:48:32.602Z,13.85
2022-09-17T05:50:59.957Z,5.50
2022-09-17T05:53:27.585Z,7.30
2022-09-17T05:55:58.666Z,5.65
2022-09-17T05:58:26.065Z,7.25
2022-09-17T06:00:53.968Z,4.40
2022-09-17T06:03:22.888Z,6.57
2022-09-17T06:05:58.325Z,8.70
2022-09-17T06:08:27.082Z,5.72
2022-09-17T06:10:56.132Z,5.82
2022-09-17T06:13:26.697Z,7.87
2022-09-17T06:15:54.209Z,7.70
2022-09-17T06:18:21.556Z,7.07
2022-09-17T06:21:02.061Z,6.45
2022-09-17T06:23:35.224Z,4.93
2022-09-17T06:26:04.615Z,8.52
2022-09-17T06:28:32.129Z,5.90
2022-09-17T06:31:03.587Z,6.82
2022-09-17T06:33:31.592Z,5.45
2022-09-17T06:36:16.739Z,6.65
2022-09-17T06:38:45.190Z,6.70
2022-09-17T06:41:14.518Z,6.68
2022-09-17T06:43:41.877Z,5.45
2022-09-17T06:46:10.258Z,3.95
2022-09-17T06:48:37.679Z,7.32
2022-09-17T06:51:06.982Z,6.78
2022-09-17T06:53:34.598Z,5.97
2022-09-17T06:56:06.319Z,6.68
2022-09-17T06:58:37.066Z,9.75
2022-09-17T07:01:05.029Z,7.00
2022-09-17T07:03:32.793Z,6.62
2022-09-17T07:06:00.170Z,6.43
2022-09-17T07:08:27.791Z,4.55
2022-09-17T07:10:56.465Z,4.60
2022-09-17T07:13:24.450Z,5.28
2022-09-17T07:15:55.710Z,4.97
2022-09-17T07:18:23.424Z,6.20
2022-09-17T07:20:55.246Z,5.20
2022-09-17T07:23:24.338Z,6.85
2022-09-17T07:25:55.805Z,5.47
2022-09-17T07:28:23.880Z,8.15
2022-09-17T07:30:51.489Z,5.53
2022-09-17T07:33:23.261Z,5.05
2022-09-17T07:36:00.501Z,4.82
2022-09-17T07:38:28.341Z,5.50
2022-09-17T07:40:57.577Z,5.90
2022-09-17T07:43:28.837Z,5.65
2022-09-17T07:46:00.555Z,4.80
2022-09-17T07:48:28.291Z,5.68
2022-09-17T07:50:56.178Z,6.95
2022-09-17T07:53:23.548Z,4.87
2022-09-17T07:55:57.286Z,7.57
2022-09-17T07:58:29.373Z,7.05
2022-09-17T08:01:09.985Z,12.10
2022-09-17T08:03:38.500Z,5.65
2022-09-17T08:06:07.519Z,5.45
2022-09-17T08:08:35.772Z,6.15
2022-09-17T08:11:04.491Z,8.85
2022-09-17T08:13:32.054Z,6.15
2022-09-17T08:16:00.841Z,5.93
2022-09-17T08:18:28.666Z,7.47
2022-09-17T08:20:59.549Z,7.28
2022-09-17T08:23:27.250Z,5.35
2022-09-17T08:25:55.463Z,6.43
2022-09-17T08:28:23.882Z,6.35
2022-09-17T08:30:51.781Z,7.85
2022-09-17T08:33:19.544Z,6.12
2022-09-17T08:35:53.698Z,6.15
2022-09-17T08:38:21.393Z,6.82
2022-09-17T08:41:00.786Z,8.15
2022-09-17T08:43:28.381Z,4.25
2022-09-17T08:45:55.781Z,8.65
2022-09-17T08:48:23.109Z,4.28
2022-09-17T08:50:51.165Z,9.15
2022-09-17T08:53:29.196Z,6.45
2022-09-17T08:56:13.844Z,5.68
2022-09-17T08:59:22.176Z,8.18
2022-09-17T09:02:00.817Z,5.28
2022-09-17T09:04:34.285Z,4.87
2022-09-17T09:07:10.174Z,8.88
2022-09-17T09:09:39.957Z,10.32
2022-09-17T09:12:22.737Z,6.45
2022-09-17T09:15:05.679Z,5.93
2022-09-17T09:17:42.205Z,6.80
2022-09-17T09:20:45.359Z,7.18
2022-09-17T09:23:18.666Z,6.47
2022-09-17T09:25:59.398Z,4.30
2022-09-17T09:28:33.151Z,7.93
2022-09-17T09:31:06.597Z,5.75
2022-09-17T09:33:37.951Z,5.75
2022-09-17T09:36:11.702Z,8.50
2022-09-17T09:39:01.788Z,7.50
2022-09-17T09:41:32.961Z,4.68
2022-09-17T09:44:04.720Z,4.60
2022-09-17T09:46:50.926Z,6.25
2022-09-17T09:49:31.089Z,10.25
2022-09-17T09:52:20.986Z,5.28
2022-09-17T09:55:08.689Z,5.35
2022-09-17T09:57:43.891Z,7.25
2022-09-17T10:00:37.685Z,9.00
2022-09-17T10:03:20.139Z,4.78
2022-09-17T10:05:59.284Z,4.75
2022-09-17T10:08:27.603Z,5.18
2022-09-17T10:11:05.712Z,4.37
2022-09-17T10:13:37.402Z,5.78
2022-09-17T10:16:17.908Z,6.70
2022-09-17T10:18:49.069Z,5.03
2022-09-17T10:21:36.406Z,7.25
2022-09-17T10:24:04.486Z,4.40
2022-09-17T10:26:35.792Z,5.62
2022-09-17T10:29:04.964Z,6.00
2022-09-17T10:31:54.786Z,11.38
2022-09-17T10:34:23.118Z,5.22
2022-09-17T10:36:50.784Z,10.30
2022-09-17T10:39:44.421Z,3.70
2022-09-17T10:42:11.860Z,4.82
2022-09-17T10:44:39.445Z,16.27
2022-09-17T10:47:29.482Z,5.62
2022-09-17T10:50:20.826Z,5.57
2022-09-17T10:52:49.646Z,6.28
2022-09-17T10:55:37.575Z,6.20
2022-09-17T10:58:07.940Z,5.93
2022-09-17T11:00:47.882Z,5.53
2022-09-17T11:03:27.018Z,7.35
2022-09-17T11:06:15.414Z,9.52
2022-09-17T11:08:54.770Z,4.37
2022-09-17T11:11:45.788Z,6.40
2022-09-17T11:14:35.874Z,6.90
2022-09-17T11:17:40.951Z,7.55
2022-09-17T11:20:14.250Z,8.27
2022-09-17T11:23:15.621Z,5.90
2022-09-17T11:26:01.286Z,6.62
2022-09-17T11:29:11.260Z,7.12
2022-09-17T11:32:14.071Z,6.87
2022-09-17T11:34:53.939Z,8.73
2022-09-17T11:37:24.308Z,6.87
2022-09-17T11:39:57.339Z,5.87
2022-09-17T11:42:28.302Z,4.62
2022-09-17T11:45:10.891Z,9.60
2022-09-17T11:48:00.291Z,5.68
2022-09-17T11:50:38.084Z,4.35
2022-09-17T11:53:23.567Z,8.27
2022-09-17T11:56:00.329Z,6.45
2022-09-17T12:01:32.585Z,5.15
2022-09-17T12:04:01.771Z,4.60
2022-09-17T12:06:42.002Z,10.07
2022-09-17T12:09:14.211Z,6.07
2022-09-17T12:11:45.858Z,9.07
2022-09-17T12:14:26.728Z,7.65
2022-09-17T12:16:57.642Z,10.23
2022-09-17T12:19:41.078Z,4.25
2022-09-17T12:22:12.375Z,7.40
2022-09-17T12:24:41.572Z,6.10
2022-09-17T12:27:17.067Z,5.50
2022-09-17T12:29:47.690Z,7.32
2022-09-17T12:32:22.467Z,5.55
2022-09-17T12:35:02.961Z,5.35
2022-09-17T12:37:52.164Z,4.07
2022-09-17T12:40:35.017Z,6.18
2022-09-17T12:43:36.669Z,7.03
2022-09-17T12:46:07.368Z,5.10
2022-09-17T12:48:37.668Z,6.97
2022-09-17T12:51:05.335Z,4.30
2022-09-17T12:53:36.915Z,6.22
2022-09-17T12:56:27.288Z,4.53
2022-09-17T12:59:00.357Z,9.98
2022-09-17T13:01:41.542Z,5.10
2022-09-17T13:04:16.282Z,5.78
2022-09-17T13:06:59.224Z,7.95
2022-09-17T13:09:35.513Z,7.65
2022-09-17T13:15:09.538Z,5.35
2022-09-17T13:17:52.413Z,8.70
2022-09-17T13:20:32.884Z,5.50
2022-09-17T13:23:00.599Z,13.15
2022-09-17T13:25:27.964Z,6.20
2022-09-17T13:28:09.167Z,5.65
2022-09-17T13:30:59.430Z,6.10
2022-09-17T13:33:50.407Z,7.80
2022-09-17T13:36:33.071Z,5.47
2022-09-17T13:39:02.233Z,7.07
2022-09-17T13:41:30.169Z,5.97
2022-09-17T13:43:57.894Z,6.90
2022-09-17T13:46:25.821Z,7.40
2022-09-17T13:48:56.391Z,8.00
2022-09-17T13:51:32.807Z,3.85
2022-09-17T13:54:04.482Z,6.45
2022-09-17T13:56:34.804Z,8.48
2022-09-17T13:59:10.501Z,8.57
2022-09-17T14:02:17.430Z,7.97
2022-09-17T14:04:45.361Z,10.13
2022-09-17T14:07:21.104Z,6.45
2022-09-17T14:09:58.429Z,5.07
2022-09-17T14:13:00.983Z,5.57
2022-09-17T14:15:40.442Z,6.12
2022-09-17T14:18:29.295Z,5.95
2022-09-17T14:21:10.064Z,6.18
2022-09-17T14:23:49.517Z,7.47
2022-09-17T14:26:24.952Z,4.22
2022-09-17T14:29:00.561Z,3.90
2022-09-17T14:31:32.105Z,6.60
2022-09-17T14:34:01.583Z,5.35
2022-09-17T14:36:35.752Z,4.68
2022-09-17T14:39:03.226Z,8.60
2022-09-17T14:41:35.604Z,7.15
2022-09-17T14:44:08.347Z,7.18
2022-09-17T14:46:36.708Z,6.50
2022-09-17T14:49:23.031Z,8.65
2022-09-17T14:51:51.546Z,5.82
2022-09-17T14:54:36.010Z,5.57
2022-09-17T14:57:10.313Z,6.43
2022-09-17T14:59:59.604Z,4.12
2022-09-17T15:02:36.242Z,5.72
2022-09-17T15:05:36.769Z,4.50
2022-09-17T15:08:10.405Z,5.95
2022-09-17T15:10:52.593Z,5.18
2022-09-17T15:13:24.192Z,8.80
2022-09-17T15:16:07.720Z,5.53
2022-09-17T15:18:38.246Z,5.43
2022-09-17T15:21:15.112Z,7.05
2022-09-17T15:23:42.718Z,3.75
2022-09-17T15:26:10.048Z,4.00
2022-09-17T15:28:39.381Z,5.25
2022-09-17T15:31:10.152Z,5.57
2022-09-17T15:33:37.909Z,5.30
2022-09-17T15:36:15.875Z,6.05
2022-09-17T15:41:33.803Z,5.55
2022-09-17T15:44:31.168Z,5.80
2022-09-17T15:47:37.785Z,4.20
2022-09-17T15:50:16.431Z,7.40
2022-09-17T15:52:44.080Z,5.12
2022-09-17T15:55:34.602Z,5.85
2022-09-17T15:58:04.607Z,18.95
2022-09-17T16:00:31.966Z,3.37
2022-09-17T16:03:16.621Z,4.05
2022-09-17T16:05:47.330Z,4.15
2022-09-17T16:08:19.285Z,12.57
2022-09-17T16:10:46.668Z,5.97
2022-09-17T16:13:14.033Z,6.87
2022-09-17T16:15:41.740Z,4.45
2022-09-17T16:18:12.587Z,3.92
2022-09-17T16:20:39.912Z,4.72
2022-09-17T16:23:07.576Z,8.75
2022-09-17T16:25:36.625Z,3.78
2022-09-17T16:28:10.417Z,5.40
2022-09-17T16:30:43.573Z,6.40
2022-09-17T16:33:12.193Z,4.45
2022-09-17T16:35:40.007Z,7.28
2022-09-17T16:38:07.544Z,4.97
2022-09-17T16:40:35.377Z,5.00
2022-09-17T16:43:04.159Z,3.80
2022-09-17T16:45:32.897Z,8.15
2022-09-17T16:48:00.363Z,3.62
2022-09-17T16:50:28.075Z,3.90
2022-09-17T16:52:57.449Z,3.70
2022-09-17T16:55:26.044Z,10.02
2022-09-17T16:57:53.878Z,4.37
2022-09-17T17:00:21.281Z,6.50
2022-09-17T17:02:56.157Z,3.00
2022-09-17T17:05:25.034Z,5.35
2022-09-17T17:07:54.950Z,3.95
2022-09-17T17:10:24.300Z,3.17
2022-09-17T17:12:52.858Z,4.20
2022-09-17T17:15:21.644Z,5.68
2022-09-17T17:17:49.293Z,5.37
2022-09-17T17:20:17.905Z,4.65
2022-09-17T17:22:47.035Z,4.82
2022-09-17T17:25:14.672Z,7.18
2022-09-17T17:27:42.309Z,3.47
2022-09-17T17:30:17.852Z,4.10
2022-09-17T17:32:47.016Z,4.80
2022-09-17T17:35:14.744Z,4.75
2022-09-17T17:37:42.533Z,3.62
2022-09-17T17:40:10.403Z,6.32
2022-09-17T17:42:39.442Z,6.45
2022-09-17T17:45:07.295Z,4.32
2022-09-17T17:47:35.688Z,5.60
2022-09-17T17:50:03.502Z,5.68
2022-09-17T17:52:31.915Z,4.97
2022-09-17T17:54:59.536Z,4.70
2022-09-17T17:57:26.880Z,5.60
2022-09-17T17:59:54.249Z,7.70
2022-09-17T18:02:21.967Z,4.50
2022-09-17T18:04:49.681Z,4.12
2022-09-17T18:07:17.005Z,3.53
2022-09-17T18:09:44.567Z,6.18
2022-09-17T18:12:12.174Z,5.05
2022-09-17T18:14:39.502Z,3.47
2022-09-17T18:17:06.819Z,3.25
2022-09-17T18:19:34.451Z,6.07
2022-09-17T18:22:01.837Z,4.07
2022-09-17T18:24:29.185Z,3.42
2022-09-17T18:26:56.770Z,6.40
2022-09-17T18:29:24.141Z,9.00
2022-09-17T18:31:51.546Z,5.50
2022-09-17T18:34:21.621Z,4.70
2022-09-17T18:36:51.365Z,3.00
2022-09-17T18:42:08.789Z,4.85
2022-09-17T18:44:36.500Z,5.62
2022-09-17T18:47:03.860Z,2.80
2022-09-17T18:49:31.181Z,5.07
2022-09-17T18:51:58.795Z,3.65
2022-09-17T18:54:26.156Z,6.50
2022-09-17T18:56:53.487Z,3.47
2022-09-17T18:59:22.281Z,3.17
2022-09-17T19:01:50.795Z,2.53
2022-09-17T19:04:18.228Z,5.05
2022-09-17T19:06:46.799Z,4.15
2022-09-17T19:09:16.337Z,3.00
2022-09-17T19:11:43.649Z,3.95
2022-09-17T19:14:11.778Z,4.25
2022-09-17T19:16:39.149Z,2.62
2022-09-17T19:19:06.591Z,4.35
2022-09-17T19:21:34.178Z,2.30
2022-09-17T19:24:03.373Z,2.58
2022-09-17T19:26:31.808Z,2.58
2022-09-17T19:29:00.460Z,4.97
2022-09-17T19:31:28.028Z,3.37
2022-09-17T19:33:56.401Z,4.25
2022-09-17T19:36:24.361Z,3.58
2022-09-17T19:38:52.123Z,5.15
2022-09-17T19:41:20.322Z,2.85
2022-09-17T19:43:48.168Z,4.00
2022-09-17T19:46:17.886Z,3.78
2022-09-17T19:48:53.039Z,4.07
2022-09-17T19:51:21.056Z,5.20
2022-09-17T19:53:48.480Z,3.50
2022-09-17T19:56:17.207Z,3.80
2022-09-17T19:58:44.899Z,5.15
2022-09-17T20:01:13.274Z,3.30
2022-09-17T20:03:41.652Z,4.25
2022-09-17T20:06:11.153Z,5.43
2022-09-17T20:08:47.209Z,2.75
2022-09-17T20:11:15.192Z,5.22
2022-09-17T20:13:42.582Z,3.12
2022-09-17T20:16:13.356Z,2.47
2022-09-17T20:18:41.372Z,3.37
2022-09-17T20:21:15.805Z,3.08
2022-09-17T20:23:43.827Z,3.87
2022-09-17T20:26:12.057Z,3.22
2022-09-17T20:28:39.819Z,4.50
2022-09-17T20:31:10.652Z,4.90
2022-09-17T20:33:38.008Z,3.20
2022-09-17T20:36:15.709Z,3.47
2022-09-17T20:41:34.907Z,3.20
2022-09-17T20:44:02.681Z,6.22
2022-09-17T20:46:30.106Z,3.62
2022-09-17T20:48:58.230Z,3.87
2022-09-17T20:51:27.532Z,3.95
2022-09-17T20:53:55.340Z,4.55
2022-09-17T20:56:24.344Z,3.55
2022-09-17T20:59:02.806Z,4.47
2022-09-17T21:01:32.944Z,3.50
2022-09-17T21:04:01.054Z,5.70
2022-09-17T21:06:30.119Z,4.43
2022-09-17T21:08:57.515Z,3.67
2022-09-17T21:11:25.105Z,3.60
2022-09-17T21:13:52.717Z,4.97
2022-09-17T21:16:20.936Z,4.85
2022-09-17T21:18:48.571Z,3.80
2022-09-17T21:21:17.816Z,3.67
2022-09-17T21:23:45.176Z,5.35
2022-09-17T21:26:17.110Z,3.25
2022-09-17T21:28:45.285Z,3.67
2022-09-17T21:31:17.641Z,2.75
2022-09-17T21:33:45.556Z,5.50
2022-09-17T21:36:14.989Z,3.58
2022-09-17T21:38:42.345Z,3.50
2022-09-17T21:41:11.992Z,5.10
2022-09-17T21:43:39.934Z,5.05
2022-09-17T21:46:08.098Z,3.25
2022-09-17T21:48:36.793Z,3.90
2022-09-17T21:51:08.661Z,3.15
2022-09-17T21:53:36.021Z,4.45
2022-09-17T21:56:13.552Z,2.95
2022-09-17T21:58:41.272Z,4.28
2022-09-17T22:01:13.253Z,5.40
2022-09-17T22:03:41.220Z,3.78
2022-09-17T22:06:11.057Z,3.10
2022-09-17T22:08:38.417Z,3.55
2022-09-17T22:11:16.529Z,3.08
2022-09-17T22:14:08.952Z,2.72
2022-09-17T22:16:41.649Z,3.87
2022-09-17T22:19:09.502Z,2.20
2022-09-17T22:21:38.465Z,3.70
2022-09-17T22:24:06.219Z,5.00
2022-09-17T22:26:35.445Z,3.47
2022-09-17T22:29:08.312Z,3.40
2022-09-17T22:31:35.729Z,3.28
2022-09-17T22:34:07.164Z,4.28
2022-09-17T22:36:34.541Z,3.72
2022-09-17T22:39:01.915Z,2.97
2022-09-17T22:41:31.153Z,3.70
2022-09-17T22:43:59.190Z,4.40
2022-09-17T22:46:27.955Z,4.32
2022-09-17T22:48:55.874Z,3.35
2022-09-17T22:51:23.758Z,4.90
2022-09-17T22:53:51.182Z,5.05
2022-09-17T22:56:19.740Z,4.62
2022-09-17T22:58:47.334Z,6.32
2022-09-17T23:01:18.956Z,4.20
2022-09-17T23:03:47.468Z,3.58
2022-09-17T23:06:16.479Z,4.15
2022-09-17T23:08:43.885Z,4.20
2022-09-17T23:11:33.040Z,4.18
2022-09-17T23:14:02.358Z,4.53
2022-09-17T23:16:34.675Z,3.03
2022-09-17T23:19:02.020Z,5.35
2022-09-17T23:21:29.801Z,4.20
2022-09-17T23:23:57.252Z,7.07
2022-09-17T23:26:25.222Z,18.12
2022-09-17T23:28:52.838Z,5.82
2022-09-17T23:31:26.806Z,3.90
2022-09-17T23:33:55.171Z,3.85
2022-09-17T23:36:24.174Z,5.03
2022-09-17T23:38:51.704Z,6.78
2022-09-17T23:41:36.262Z,5.15
2022-09-17T23:44:05.357Z,4.12
2022-09-17T23:46:34.179Z,4.95
2022-09-17T23:49:02.359Z,5.25
2022-09-17T23:51:30.998Z,3.33
2022-09-17T23:53:58.656Z,3.30
2022-09-17T23:56:26.557Z,5.57
2022-09-17T23:58:54.530Z,5.62
